Metar Aviation Weather Data EPKT Katowice International

-1°C Temp
-15°C Dewpoint
% Humidity
Temperature
29 KM/H
18 MPH
16 KTS
10°
Due North

Wind Speed
Clear
Conditions
Pressure 1032.91 (hPa) - 30.5 (in)
Visibility 6.2 (mi) - 10 (km)

Current Conditions
EPKT
Katowice International
Metar :EPKT 221330Z 01016KT 350V050 CAVOK M01/M15 Q1033
Fri 22nd February 15:30 pm

Katowice International
  Metar Aviation API Data Provided by https://www.checkwx.com/ PHP scripts by weather34.com ©2019